Time;durP1;ratioP1;P1;durP2;ratioP2;P2;SDS_P1;SDS_P2;PMS_P1;PMS_P2;Temp;Humidity;BMP_temperature;BMP_pressure;BME280_temperature;BME280_humidity;BME280_pressure;Samples;Min_cycle;Max_cycle;Signal;HPM_P1;HPM_P2
2023/01/24 00:01:12;;;;;;;13.57;5.78;;;;;;;3.32;68.09;100814.69;4922754;29;20039;-93
2023/01/24 00:03:37;;;;;;;8.32;4.78;;;;;;;3.30;68.04;100820.22;4948371;28;20536;-92
2023/01/24 00:06:03;;;;;;;9.05;5.03;;;;;;;3.30;68.17;100848.66;4953462;29;20058;-94
2023/01/24 00:08:28;;;;;;;11.63;5.30;;;;;;;3.25;68.50;100833.25;4923097;29;20035;-93
2023/01/24 00:11:20;;;;;;;11.20;5.25;;;;;;;3.34;68.15;100855.25;4944654;29;20422;-93
2023/01/24 00:13:46;;;;;;;11.18;4.53;;;;;;;3.03;68.47;100835.81;4937312;29;20081;-93
2023/01/24 00:16:20;;;;;;;11.93;5.35;;;;;;;2.94;68.74;100833.41;4937629;29;20040;-93
2023/01/24 00:18:46;;;;;;;9.23;4.80;;;;;;;3.03;68.11;100835.81;4941751;29;20057;-93
2023/01/24 00:21:14;;;;;;;9.52;4.75;;;;;;;2.94;68.22;100831.56;4919334;29;20039;-93
2023/01/24 00:23:44;;;;;;;10.02;4.97;;;;;;;3.02;68.89;100852.78;4941895;29;20043;-93
2023/01/24 00:26:11;;;;;;;15.40;5.18;;;;;;;2.98;68.68;100838.19;4940154;29;20035;-93
2023/01/24 00:28:37;;;;;;;10.15;4.28;;;;;;;2.88;68.87;100839.47;4906493;29;20472;-93
2023/01/24 00:31:02;;;;;;;7.82;4.20;;;;;;;2.85;69.14;100838.00;4920947;29;20039;-93
2023/01/24 00:33:28;;;;;;;9.73;4.32;;;;;;;2.80;69.33;100837.69;4925680;29;20031;-93
2023/01/24 00:35:53;;;;;;;10.60;5.15;;;;;;;2.79;68.63;100831.56;4938040;29;20040;-93
2023/01/24 00:38:19;;;;;;;8.63;4.30;;;;;;;2.78;68.85;100845.88;4906722;29;20048;-92
2023/01/24 00:40:45;;;;;;;10.38;4.75;;;;;;;2.62;68.66;100835.41;4907162;29;20036;-93
2023/01/24 00:43:10;;;;;;;9.68;4.72;;;;;;;2.54;69.69;100838.94;4938144;29;20031;-93
2023/01/24 00:45:36;;;;;;;9.10;4.38;;;;;;;2.81;69.09;100852.66;4908951;29;20039;-93
2023/01/24 00:48:03;;;;;;;10.80;4.65;;;;;;;2.61;69.34;100845.22;4922589;29;20032;-93
2023/01/24 00:50:28;;;;;;;10.63;5.50;;;;;;;2.82;69.05;100849.84;4907339;29;20035;-92
2023/01/24 00:52:54;;;;;;;11.50;4.45;;;;;;;2.83;69.20;100867.44;4929546;29;20063;-93
2023/01/24 00:55:19;;;;;;;11.15;5.18;;;;;;;2.77;69.03;100862.84;4918613;29;20039;-93
2023/01/24 00:57:45;;;;;;;7.90;4.05;;;;;;;2.73;68.47;100850.91;4925024;29;20070;-93
2023/01/24 01:00:12;;;;;;;9.80;4.22;;;;;;;2.60;69.08;100840.06;4925465;29;20413;-92
2023/01/24 01:02:37;;;;;;;11.52;4.95;;;;;;;2.41;69.09;100849.38;4921238;29;20035;-92
2023/01/24 01:05:03;;;;;;;11.77;4.60;;;;;;;2.47;69.43;100850.47;4937364;29;20036;-93
2023/01/24 01:07:28;;;;;;;9.70;4.40;;;;;;;2.48;69.29;100855.59;4924013;29;20035;-93
2023/01/24 01:09:54;;;;;;;7.65;3.78;;;;;;;2.27;69.98;100848.31;4930628;29;20062;-93
2023/01/24 01:12:19;;;;;;;11.00;4.30;;;;;;;2.21;69.93;100852.47;4937271;29;20040;-93
2023/01/24 01:14:45;;;;;;;9.43;4.20;;;;;;;2.29;69.85;100862.25;4939312;29;20043;-93
2023/01/24 01:17:10;;;;;;;9.00;4.35;;;;;;;2.09;70.37;100851.25;4918914;29;20062;-93
2023/01/24 01:19:36;;;;;;;9.50;4.40;;;;;;;2.13;70.83;100878.28;4923502;29;20043;-93
2023/01/24 01:22:01;;;;;;;7.93;4.28;;;;;;;2.08;70.22;100832.84;4941160;29;20047;-93
2023/01/24 01:24:27;;;;;;;8.70;4.03;;;;;;;2.33;69.32;100868.84;4940913;29;20042;-92
2023/01/24 01:26:53;;;;;;;7.78;3.80;;;;;;;2.30;69.79;100871.03;4933967;29;20039;-92
2023/01/24 01:29:18;;;;;;;6.70;3.67;;;;;;;2.32;68.67;100855.72;4921097;29;20399;-92
2023/01/24 01:31:44;;;;;;;8.38;4.28;;;;;;;2.20;68.61;100842.88;4932063;29;20418;-93
2023/01/24 01:34:10;;;;;;;8.68;4.03;;;;;;;2.40;68.55;100861.00;4924362;29;20105;-94
2023/01/24 01:36:35;;;;;;;7.57;3.65;;;;;;;2.49;68.77;100861.75;4941100;29;20035;-92
2023/01/24 01:39:01;;;;;;;6.65;3.30;;;;;;;2.39;67.63;100852.19;4924750;29;20134;-93
2023/01/24 01:41:26;;;;;;;7.13;3.78;;;;;;;2.18;68.50;100838.75;4925760;29;20455;-93
2023/01/24 01:46:42;;;;;;;5.78;3.28;;;;;;;2.54;67.39;100867.38;4955798;29;20126;-93
2023/01/24 01:49:12;;;;;;;8.75;4.55;;;;;;;2.25;67.63;100846.84;4920978;29;20071;-93
2023/01/24 01:51:46;;;;;;;6.28;3.33;;;;;;;2.24;68.65;100875.22;4906326;29;20032;-92
2023/01/24 01:54:19;;;;;;;7.00;3.58;;;;;;;2.19;68.41;100878.41;4919232;29;20139;-92
2023/01/24 01:56:49;;;;;;;6.97;3.90;;;;;;;2.32;67.41;100853.06;4917993;29;20058;-94
2023/01/24 01:59:19;;;;;;;6.95;4.03;;;;;;;2.25;68.32;100857.47;4922933;29;20043;-92
2023/01/24 02:01:45;;;;;;;7.88;3.83;;;;;;;2.21;67.73;100846.34;4951432;29;20482;-92
2023/01/24 02:04:19;;;;;;;5.80;3.25;;;;;;;2.18;67.80;100862.66;4914221;29;20186;-92
2023/01/24 02:07:05;;;;;;;7.15;3.33;;;;;;;2.14;68.53;100870.16;4903004;29;20146;-92
2023/01/24 02:09:37;;;;;;;6.38;3.30;;;;;;;2.14;67.95;100856.03;4922328;29;20061;-93
2023/01/24 02:12:08;;;;;;;4.85;2.80;;;;;;;2.22;68.15;100861.28;4927691;29;20035;-93
2023/01/24 02:17:19;;;;;;;6.72;3.05;;;;;;;2.19;67.89;100862.47;4952286;29;20110;-92
2023/01/24 02:20:06;;;;;;;7.60;3.47;;;;;;;2.09;67.79;100843.28;4916440;29;20071;-92
2023/01/24 02:22:38;;;;;;;6.60;3.28;;;;;;;2.19;68.11;100874.94;4924333;29;20027;-92
2023/01/24 02:25:15;;;;;;;8.90;3.72;;;;;;;1.97;68.05;100853.50;4940358;29;20036;-92
2023/01/24 02:27:40;;;;;;;7.45;3.75;;;;;;;1.80;68.46;100860.69;4928699;29;20126;-92
2023/01/24 02:30:06;;;;;;;6.97;3.45;;;;;;;1.92;68.49;100870.94;4904382;29;20099;-92
2023/01/24 02:32:32;;;;;;;5.63;3.00;;;;;;;1.92;68.58;100870.94;4918737;29;20126;-92
2023/01/24 02:34:57;;;;;;;6.30;2.67;;;;;;;2.05;67.47;100863.22;4929871;29;20035;-92
2023/01/24 02:37:23;;;;;;;5.20;2.85;;;;;;;1.99;68.39;100853.28;4926940;29;20031;-92
2023/01/24 02:40:04;;;;;;;4.85;2.30;;;;;;;2.14;67.75;100856.03;4923657;29;20015;-92
2023/01/24 02:42:32;;;;;;;9.63;3.65;;;;;;;2.05;68.23;100873.03;4939608;29;20079;-93
2023/01/24 02:45:14;;;;;;;6.40;2.60;;;;;;;2.17;67.74;100871.63;4939646;29;20498;-92
2023/01/24 02:47:50;;;;;;;7.00;2.90;;;;;;;1.87;67.14;100852.03;4955300;29;20050;-93
2023/01/24 02:50:18;;;;;;;5.03;2.25;;;;;;;1.91;67.15;100869.28;4937223;29;20482;-92
2023/01/24 02:55:28;;;;;;;6.28;2.70;;;;;;;1.86;67.42;100851.22;4946309;29;20114;-93
2023/01/24 02:58:06;;;;;;;5.88;2.97;;;;;;;1.85;67.03;100880.59;4921518;29;20059;-94
2023/01/24 03:00:41;;;;;;;12.88;2.90;;;;;;;1.87;66.65;100867.97;4926673;29;20090;-93
2023/01/24 03:03:07;;;;;;;6.00;2.85;;;;;;;1.94;67.01;100874.25;4935564;29;20118;-92
2023/01/24 03:05:46;;;;;;;6.68;2.70;;;;;;;1.81;67.46;100865.03;4930404;29;20085;-93
2023/01/24 03:08:12;;;;;;;6.20;2.85;;;;;;;1.97;67.09;100865.91;4948574;29;20134;-92
2023/01/24 03:10:37;;;;;;;5.60;2.35;;;;;;;2.03;66.30;100867.88;4905254;29;20056;-92
2023/01/24 03:34:54;;;;;;;5.30;2.92;;;;;;;2.10;67.78;100883.97;4923931;29;20127;-92
2023/01/24 03:40:08;;;;;;;4.68;2.42;;;;;;;1.85;68.50;100883.25;4941693;29;20055;-93
2023/01/24 03:42:34;;;;;;;6.38;3.78;;;;;;;1.81;68.48;100867.69;4893188;29;20036;-92
2023/01/24 03:45:00;;;;;;;7.15;3.78;;;;;;;1.70;68.33;100865.44;4907298;29;20043;-93
2023/01/24 03:47:25;;;;;;;5.60;3.15;;;;;;;1.70;68.51;100870.72;4929691;29;20040;-92
2023/01/24 03:52:34;;;;;;;8.50;3.40;;;;;;;1.76;68.79;100877.16;4952547;29;20034;-92
2023/01/24 03:55:00;;;;;;;7.45;3.03;;;;;;;1.87;69.05;100876.78;4923805;29;20495;-93
2023/01/24 03:57:26;;;;;;;5.03;2.90;;;;;;;1.85;68.55;100888.56;4926468;29;20126;-92
2023/01/24 03:59:52;;;;;;;6.38;4.25;;;;;;;1.84;69.28;100865.69;4939170;29;20038;-93
2023/01/24 04:02:17;;;;;;;7.97;3.25;;;;;;;1.85;68.77;100867.31;4954920;29;20015;-93
2023/01/24 04:07:27;;;;;;;6.13;3.25;;;;;;;1.73;69.19;100875.69;4930990;29;20031;-92
2023/01/24 04:09:52;;;;;;;8.07;3.83;;;;;;;1.93;68.95;100886.72;4908661;29;20083;-92
2023/01/24 04:12:18;;;;;;;6.10;3.58;;;;;;;1.93;68.90;100878.75;4926167;29;20418;-92
2023/01/24 04:14:43;;;;;;;7.22;3.10;;;;;;;1.95;68.30;100881.22;4922831;29;20075;-92
2023/01/24 04:17:09;;;;;;;5.68;2.60;;;;;;;1.72;68.93;100881.16;4917551;29;20557;-92
2023/01/24 04:19:35;;;;;;;8.10;4.45;;;;;;;1.54;69.53;100873.47;4942601;29;20418;-91
2023/01/24 04:22:00;;;;;;;8.55;3.78;;;;;;;1.49;69.75;100876.59;4958587;29;20019;-93
2023/01/24 04:24:31;;;;;;;9.90;3.92;;;;;;;1.47;70.59;100901.66;4939087;29;20134;-92
2023/01/24 04:26:59;;;;;;;5.93;3.20;;;;;;;1.53;69.26;100875.25;4923185;29;20038;-92
2023/01/24 04:29:24;;;;;;;9.23;3.83;;;;;;;1.58;69.56;100872.13;4917513;29;20034;-93
2023/01/24 04:31:54;;;;;;;9.13;3.55;;;;;;;1.59;68.99;100890.50;4938829;29;20056;-93
2023/01/24 04:34:20;;;;;;;7.50;3.92;;;;;;;1.72;69.63;100902.41;4939116;29;20113;-93
2023/01/24 04:36:45;;;;;;;8.75;3.55;;;;;;;1.48;69.98;100879.44;4919392;29;20054;-93
2023/01/24 04:39:11;;;;;;;9.20;4.18;;;;;;;1.59;69.50;100884.38;4929917;29;20098;-93
2023/01/24 04:41:37;;;;;;;5.90;3.47;;;;;;;1.45;69.53;100877.13;4947379;29;20062;-93
2023/01/24 04:44:02;;;;;;;8.77;4.25;;;;;;;1.62;70.67;100913.25;4943553;29;20402;-92
2023/01/24 04:46:28;;;;;;;5.55;3.38;;;;;;;1.44;70.44;100894.88;4942522;29;20470;-94
2023/01/24 04:49:00;;;;;;;12.60;3.83;;;;;;;1.39;70.03;100884.78;4941955;28;20038;-94
2023/01/24 04:51:25;;;;;;;9.65;4.18;;;;;;;1.53;69.66;100896.50;4942911;29;20046;-95
2023/01/24 04:53:51;;;;;;;5.30;3.55;;;;;;;1.60;69.39;100899.31;4937292;29;20035;-93
2023/01/24 04:56:16;;;;;;;6.03;4.00;;;;;;;1.37;70.72;100902.72;4921813;29;20040;-94
2023/01/24 04:58:42;;;;;;;9.57;3.97;;;;;;;1.56;71.25;100905.97;4909971;29;20040;-94
2023/01/24 05:01:07;;;;;;;7.88;3.22;;;;;;;1.56;70.67;100911.28;4928688;29;20040;-93
2023/01/24 05:03:33;;;;;;;8.23;4.85;;;;;;;1.62;70.40;100921.22;4924106;29;20126;-91
2023/01/24 05:05:58;;;;;;;9.55;3.78;;;;;;;1.73;70.33;100922.66;4930627;29;20043;-94
2023/01/24 05:08:24;;;;;;;10.05;5.47;;;;;;;1.54;70.64;100934.50;4906987;29;20032;-94
2023/01/24 05:10:49;;;;;;;7.38;4.20;;;;;;;1.56;70.06;100929.84;4907014;29;20059;-95
2023/01/24 05:13:15;;;;;;;9.80;3.88;;;;;;;1.57;69.40;100902.28;4922667;29;20143;-95
2023/01/24 05:15:48;;;;;;;8.88;3.90;;;;;;;1.46;70.05;100929.22;4921866;29;20183;-94
2023/01/24 05:18:13;;;;;;;11.18;4.85;;;;;;;1.46;70.85;100916.78;4906495;29;20042;-93
2023/01/24 05:20:38;;;;;;;8.50;4.65;;;;;;;1.62;69.51;100934.47;4921503;29;20031;-94
2023/01/24 05:23:04;;;;;;;8.85;4.32;;;;;;;1.63;70.29;100922.03;4906603;29;20040;-91
2023/01/24 05:25:29;;;;;;;8.02;4.60;;;;;;;1.46;70.21;100921.25;4921529;29;20422;-93
2023/01/24 05:27:55;;;;;;;9.80;4.72;;;;;;;1.63;70.35;100927.34;4906967;29;20104;-94
2023/01/24 05:30:20;;;;;;;7.38;4.60;;;;;;;1.52;71.36;100916.09;4907448;29;20035;-93
2023/01/24 05:32:46;;;;;;;9.48;5.05;;;;;;;1.58;71.46;100919.91;4894967;29;20039;-93
2023/01/24 05:35:11;;;;;;;11.52;5.22;;;;;;;1.50;71.02;100911.97;4948342;29;20035;-93
2023/01/24 05:37:45;;;;;;;9.88;4.55;;;;;;;1.61;70.31;100904.44;4920548;29;20490;-92
2023/01/24 05:40:10;;;;;;;15.45;5.43;;;;;;;1.81;69.81;100928.75;4935291;29;20039;-93
2023/01/24 05:42:38;;;;;;;9.60;4.63;;;;;;;1.87;68.80;100919.28;4939582;29;20087;-92
2023/01/24 05:45:05;;;;;;;9.77;4.82;;;;;;;1.90;69.85;100929.53;4941651;29;20054;-92
2023/01/24 05:47:30;;;;;;;6.65;4.07;;;;;;;1.95;68.50;100915.72;4936595;29;20417;-92
2023/01/24 05:49:56;;;;;;;13.30;6.90;;;;;;;2.19;67.70;100946.66;4924636;29;20107;-93
2023/01/24 05:52:22;;;;;;;9.75;4.95;;;;;;;2.06;68.16;100943.75;4928439;29;20047;-92
2023/01/24 05:54:48;;;;;;;9.23;5.10;;;;;;;1.92;68.39;100930.19;4939257;29;20103;-92
2023/01/24 05:57:14;;;;;;;12.23;5.05;;;;;;;1.76;68.74;100930.25;4927239;29;20043;-92
2023/01/24 05:59:39;;;;;;;11.68;5.20;;;;;;;1.93;68.74;100942.50;4922480;29;20153;-93
2023/01/24 06:02:05;;;;;;;12.25;5.20;;;;;;;1.89;67.78;100943.00;4931476;29;20039;-92
2023/01/24 06:04:30;;;;;;;15.95;5.38;;;;;;;1.74;68.98;100937.56;4917860;29;20533;-92
2023/01/24 06:06:56;;;;;;;7.65;3.85;;;;;;;1.86;68.03;100944.16;4916324;29;20038;-92
2023/01/24 06:09:25;;;;;;;9.68;5.80;;;;;;;1.82;68.77;100930.41;4943541;29;20518;-94
2023/01/24 06:11:50;;;;;;;8.50;4.65;;;;;;;2.16;67.72;100971.78;4936231;29;20051;-92
2023/01/24 06:17:49;;;;;;;8.00;4.57;;;;;;;2.06;66.87;100936.63;4891153;29;20685;-91
2023/01/24 06:20:18;;;;;;;8.70;4.38;;;;;;;2.10;67.74;100963.69;4933939;29;20039;-96
2023/01/24 06:23:10;;;;;;;9.77;5.00;;;;;;;2.10;67.41;100977.78;4934260;29;20035;-95
2023/01/24 06:25:36;;;;;;;10.07;5.40;;;;;;;1.99;68.15;100949.78;4947441;29;20054;-91
2023/01/24 06:28:05;;;;;;;9.52;5.07;;;;;;;2.15;68.06;100954.16;4920683;29;20040;-94
2023/01/24 06:30:31;;;;;;;9.43;4.50;;;;;;;2.40;66.95;100975.28;4917904;29;20039;-94
2023/01/24 06:33:14;;;;;;;7.75;4.88;;;;;;;2.49;66.80;100976.91;4937153;28;20050;-96
2023/01/24 06:36:11;;;;;;;18.60;7.28;;;;;;;2.60;66.34;100986.31;4947889;29;20051;-92
2023/01/24 06:38:40;;;;;;;9.98;3.72;;;;;;;2.49;66.32;100965.44;4943604;29;20048;-92
2023/01/24 06:41:16;;;;;;;11.13;5.68;;;;;;;2.59;67.23;100972.19;4914379;29;20134;-93
2023/01/24 06:43:45;;;;;;;8.80;3.95;;;;;;;2.55;65.80;100975.34;4940404;29;20039;-95
2023/01/24 06:46:11;;;;;;;9.23;4.50;;;;;;;2.50;66.07;100970.56;4924542;29;20043;-93
2023/01/24 06:48:42;;;;;;;12.75;5.90;;;;;;;2.60;65.66;100971.19;4924385;29;20042;-93
2023/01/24 06:51:14;;;;;;;13.93;4.90;;;;;;;2.40;65.44;100978.78;4938149;29;20035;-95
2023/01/24 06:53:52;;;;;;;12.20;5.83;;;;;;;2.69;64.92;100987.06;4915832;29;20119;-95
2023/01/24 06:56:18;;;;;;;6.88;3.85;;;;;;;2.69;64.52;100982.56;4938635;29;20291;-95
2023/01/24 06:58:43;;;;;;;6.90;3.47;;;;;;;2.75;64.72;100989.84;4919231;29;20051;-95
2023/01/24 07:01:11;;;;;;;8.35;4.43;;;;;;;2.47;65.16;100975.41;4941425;29;20111;-94
2023/01/24 07:03:41;;;;;;;11.00;3.95;;;;;;;2.49;65.81;100986.69;4926046;29;20055;-93
2023/01/24 07:06:07;;;;;;;9.80;4.35;;;;;;;2.31;65.68;100976.34;4943689;28;20039;-92
2023/01/24 07:08:32;;;;;;;13.15;6.03;;;;;;;2.45;65.29;100969.44;4957789;29;20042;-94
2023/01/24 07:11:07;;;;;;;16.08;7.07;;;;;;;2.58;65.44;100978.50;4941854;29;20043;-95
2023/01/24 07:14:20;;;;;;;8.25;4.50;;;;;;;2.42;65.60;100967.97;4946089;28;20036;-96
2023/01/24 07:17:34;;;;;;;11.95;4.57;;;;;;;2.69;64.76;101011.84;4950058;29;20047;-96
2023/01/24 07:20:19;;;;;;;6.93;3.97;;;;;;;2.72;64.54;100989.38;4962191;29;20043;-96
2023/01/24 07:22:50;;;;;;;7.45;4.13;;;;;;;2.74;64.75;101014.81;4952381;29;20031;-96
2023/01/24 07:25:19;;;;;;;6.88;4.20;;;;;;;2.67;64.22;101007.69;4915485;29;20043;-96
2023/01/24 07:27:55;;;;;;;7.40;4.22;;;;;;;2.78;64.06;100997.50;4928566;29;20476;-96
2023/01/24 07:30:21;;;;;;;8.45;4.30;;;;;;;2.68;63.96;100988.06;4918235;29;20039;-95
2023/01/24 07:32:55;;;;;;;10.73;4.45;;;;;;;2.78;64.25;101013.44;4931352;29;20169;-96
2023/01/24 07:35:23;;;;;;;8.27;3.90;;;;;;;2.60;64.95;101005.75;4913870;29;20036;-95
2023/01/24 07:37:49;;;;;;;8.82;5.13;;;;;;;2.48;65.05;101015.13;4928002;29;20039;-92
2023/01/24 07:40:15;;;;;;;8.57;4.82;;;;;;;2.52;65.12;101021.75;4928688;29;20102;-91
2023/01/24 07:42:46;;;;;;;8.25;4.28;;;;;;;2.45;65.66;101025.28;4939036;29;20051;-96
2023/01/24 07:45:12;;;;;;;7.97;4.28;;;;;;;2.62;65.38;101021.53;4943064;29;20039;-93
2023/01/24 07:47:40;;;;;;;7.68;3.85;;;;;;;2.61;64.97;101033.16;4920981;29;20412;-94
2023/01/24 07:50:07;;;;;;;40.25;15.43;;;;;;;2.61;64.79;101031.34;4942643;29;20094;-93
2023/01/24 07:52:35;;;;;;;15.52;8.57;;;;;;;2.64;64.80;101014.22;4925396;29;20054;-94
2023/01/24 07:55:01;;;;;;;20.45;8.50;;;;;;;2.43;65.59;101001.53;4916723;29;20066;-92
2023/01/24 07:57:29;;;;;;;7.38;4.32;;;;;;;2.33;66.27;101012.38;4951402;29;20132;-93
2023/01/24 08:00:01;;;;;;;17.63;10.32;;;;;;;2.61;66.02;101018.06;4928719;29;20035;-96
2023/01/24 08:02:32;;;;;;;12.02;6.60;;;;;;;2.77;64.79;101032.25;4940602;29;20506;-95
2023/01/24 08:04:58;;;;;;;16.37;6.73;;;;;;;2.52;65.39;101003.13;4945225;29;20114;-94
2023/01/24 08:07:23;;;;;;;21.50;8.07;;;;;;;2.70;66.03;101016.16;4930976;29;20027;-94
2023/01/24 08:09:49;;;;;;;8.68;4.78;;;;;;;2.69;65.49;101013.66;4928753;29;20066;-94
2023/01/24 08:12:15;;;;;;;8.73;4.03;;;;;;;2.62;65.43;101011.72;4946962;28;20047;-94
2023/01/24 08:14:40;;;;;;;6.72;3.88;;;;;;;2.88;65.88;101039.81;4928574;29;20102;-92
2023/01/24 08:17:06;;;;;;;8.93;4.28;;;;;;;2.92;65.53;101030.47;4929844;29;20031;-94
2023/01/24 08:19:31;;;;;;;6.60;4.10;;;;;;;2.66;65.70;101012.19;4929884;29;20039;-94
2023/01/24 08:21:57;;;;;;;9.57;4.28;;;;;;;2.63;66.79;101023.16;4928130;29;20486;-91
2023/01/24 08:24:23;;;;;;;7.40;4.38;;;;;;;2.87;66.71;101032.03;4975569;28;20139;-93
2023/01/24 08:26:51;;;;;;;9.05;4.25;;;;;;;2.50;67.83;101030.91;4943915;29;20042;-95
2023/01/24 08:29:17;;;;;;;9.82;5.05;;;;;;;2.16;68.72;101011.63;4929081;29;20062;-94
2023/01/24 08:31:42;;;;;;;8.38;4.40;;;;;;;2.45;68.20;101022.59;4941875;29;20127;-93
2023/01/24 08:34:10;;;;;;;6.53;4.18;;;;;;;2.68;67.61;101031.47;4920194;29;20028;-93
2023/01/24 08:36:38;;;;;;;6.97;3.85;;;;;;;2.77;67.46;101042.88;4958400;29;20041;-95
2023/01/24 08:39:04;;;;;;;8.30;5.07;;;;;;;2.75;67.65;101008.47;4947815;29;20427;-95
2023/01/24 08:41:32;;;;;;;9.25;4.05;;;;;;;3.02;66.30;101032.91;4945780;29;20138;-95
2023/01/24 08:44:02;;;;;;;7.43;4.60;;;;;;;2.89;66.63;101033.50;4932399;29;20051;-93
2023/01/24 08:46:48;;;;;;;8.05;4.03;;;;;;;3.21;66.13;101036.91;4921824;29;20028;-95
2023/01/24 08:49:39;;;;;;;12.98;7.43;;;;;;;2.88;66.30;101023.84;4930318;29;20023;-96
2023/01/24 08:52:19;;;;;;;80.70;39.33;;;;;;;2.96;68.20;101052.22;4957722;29;20042;-96
2023/01/24 08:54:50;;;;;;;9.20;3.75;;;;;;;2.87;67.93;101040.81;4938578;29;20040;-96
2023/01/24 08:58:22;;;;;;;;;;;;;;;;;;;;;
2023/01/24 09:01:05;;;;;;;6.07;3.47;;;;;;;3.14;66.86;101049.28;5046108;23;20055;-95
2023/01/24 09:03:33;;;;;;;6.93;3.85;;;;;;;3.17;67.49;101030.28;4934993;29;20167;-94
2023/01/24 09:05:59;;;;;;;7.13;4.32;;;;;;;3.36;66.89;101051.09;4951102;29;20051;-93
2023/01/24 09:08:25;;;;;;;9.25;5.43;;;;;;;3.35;65.75;101045.94;4925248;29;20029;-93
2023/01/24 09:11:02;;;;;;;13.15;5.53;;;;;;;3.62;65.55;101032.03;4926348;29;20035;-95
2023/01/24 09:13:28;;;;;;;10.00;4.70;;;;;;;3.52;65.35;101042.13;4940712;29;20054;-93
2023/01/24 09:16:34;;;;;;;;;;;;;;;;;;;;;
2023/01/24 09:21:56;;;;;;;10.38;5.82;;;;;;;3.59;65.01;101044.88;4912395;29;20046;-91
2023/01/24 09:25:00;;;;;;;10.98;6.18;;;;;;;3.67;63.78;101036.00;4890821;29;20059;-96
2023/01/24 09:30:24;;;;;;;11.63;5.72;;;;;;;3.89;62.77;101047.59;5085711;23;20058;-95
2023/01/24 09:33:05;;;;;;;11.30;5.13;;;;;;;3.77;62.51;101023.22;4971884;28;20424;-96
2023/01/24 09:38:56;;;;;;;15.23;7.05;;;;;;;3.40;62.83;101020.44;4928432;29;20112;-96
2023/01/24 09:45:11;;;;;;;8.38;4.85;;;;;;;3.98;61.55;101062.47;5069928;23;20054;-96
2023/01/24 09:48:04;;;;;;;11.88;6.55;;;;;;;3.97;61.82;101056.31;4993529;28;20065;-95
2023/01/24 09:50:48;;;;;;;9.25;5.13;;;;;;;3.97;61.71;101053.66;4964697;28;20049;-94
2023/01/24 09:53:27;;;;;;;11.05;5.90;;;;;;;3.90;60.93;101036.75;4972921;23;20133;-95
2023/01/24 09:56:12;;;;;;;8.52;4.53;;;;;;;3.68;60.13;101016.34;4970366;28;20035;-96
2023/01/24 09:59:23;;;;;;;8.02;4.90;;;;;;;3.77;59.45;101017.91;4920144;29;20080;-96
2023/01/24 10:10:41;;;;;;;;;;;;;;;;;;;;;
2023/01/24 10:21:46;;;;;;;11.80;4.93;;;;;;;4.17;57.36;101035.28;4985760;28;20043;-96
2023/01/24 10:24:50;;;;;;;7.15;3.80;;;;;;;4.27;57.46;101018.16;4970833;29;20110;-96
2023/01/24 10:27:57;;;;;;;6.90;4.00;;;;;;;3.79;56.44;100995.41;4930679;29;20046;-96
2023/01/24 10:30:41;;;;;;;6.90;4.00;;;;;;;3.93;56.99;101020.41;4951646;28;20038;-96
2023/01/24 10:58:02;;;;;;;6.00;3.80;;;;;;;4.23;55.67;101004.38;3279101;23;21013;31
2023/01/24 11:04:35;;;;;;;;;;;;;;;;;;;;;
2023/01/24 11:07:21;;;;;;;9.93;4.72;;;;;;;4.26;55.84;100990.69;4980479;28;20087;-96
2023/01/24 11:13:49;;;;;;;8.18;4.90;;;;;;;4.05;56.63;100978.13;4965148;28;20110;-96
2023/01/24 11:17:07;;;;;;;7.60;3.78;;;;;;;4.12;55.14;100964.88;4957409;29;20064;-96
2023/01/24 11:19:41;;;;;;;6.25;3.58;;;;;;;4.06;54.98;100947.78;4944058;29;20043;-95
2023/01/24 11:29:10;;;;;;;10.05;3.72;;;;;;;4.04;55.83;100955.94;4945632;29;20043;-96
2023/01/24 11:32:08;;;;;;;9.73;4.40;;;;;;;4.07;55.35;100935.28;4933273;29;20062;-95
2023/01/24 11:34:49;;;;;;;7.63;3.70;;;;;;;4.23;55.26;100957.22;4937631;29;20107;-96
2023/01/24 11:37:26;;;;;;;7.22;4.25;;;;;;;4.31;55.10;100950.13;4930017;29;20044;-95
2023/01/24 11:39:52;;;;;;;10.15;4.43;;;;;;;4.09;54.90;100947.41;4934789;29;20040;-93
2023/01/24 11:42:53;;;;;;;9.30;4.20;;;;;;;4.01;54.16;100918.22;4938865;29;20103;-92
2023/01/24 11:45:18;;;;;;;9.60;5.55;;;;;;;4.05;53.92;100948.81;4936091;29;20051;-95
2023/01/24 11:48:16;;;;;;;7.22;4.03;;;;;;;3.93;54.16;100923.66;4928088;29;20419;-94
2023/01/24 11:51:20;;;;;;;9.90;4.00;;;;;;;4.21;54.33;100937.06;4891622;29;20044;-94
2023/01/24 11:54:06;;;;;;;7.72;4.05;;;;;;;3.66;53.88;100922.47;4933281;29;20040;-95
2023/01/24 11:57:00;;;;;;;6.50;4.07;;;;;;;4.04;54.65;100945.28;4971296;23;20031;-96
2023/01/24 11:59:54;;;;;;;8.60;4.45;;;;;;;3.69;55.11;100927.44;4958497;28;20064;-93
2023/01/24 12:02:32;;;;;;;9.27;4.20;;;;;;;3.89;54.57;100946.34;4949079;28;20045;-92
2023/01/24 12:05:13;;;;;;;7.57;4.80;;;;;;;4.11;54.06;100941.88;4954778;29;20055;-92
2023/01/24 12:14:14;;;;;;;7.68;3.88;;;;;;;4.00;53.84;100925.34;4991888;28;20041;-96
2023/01/24 12:16:51;;;;;;;6.57;3.35;;;;;;;4.34;53.75;100941.75;4952224;28;20047;-96
2023/01/24 12:20:03;;;;;;;6.35;3.55;;;;;;;4.23;54.10;100938.56;4978297;28;20049;-96
2023/01/24 12:22:41;;;;;;;12.82;5.13;;;;;;;4.27;53.81;100924.84;4968729;28;20536;-96
2023/01/24 12:25:34;;;;;;;6.13;3.90;;;;;;;4.06;54.01;100913.13;4958634;28;20066;-96
2023/01/24 12:31:19;;;;;;;7.85;4.18;;;;;;;4.17;53.37;100910.00;5272443;23;20060;-94
2023/01/24 12:40:12;;;;;;;8.02;3.67;;;;;;;4.44;53.05;100931.56;5074189;23;20051;-95
2023/01/24 12:43:04;;;;;;;8.05;4.03;;;;;;;4.44;53.23;100934.25;4979745;28;20074;-96
2023/01/24 12:46:23;;;;;;;;;;;;;;;;;;;;;
2023/01/24 12:52:33;;;;;;;7.78;4.20;;;;;;;4.34;53.90;100953.25;4967678;29;20488;-96
2023/01/24 12:58:46;;;;;;;8.07;4.25;;;;;;;4.10;54.62;100942.91;4966301;29;20050;-96
2023/01/24 13:07:14;;;;;;;11.15;4.53;;;;;;;3.61;55.89;100926.53;4962300;28;20046;-91
2023/01/24 13:09:58;;;;;;;10.38;5.10;;;;;;;3.51;56.14;100955.25;4936278;29;20150;-90
2023/01/24 13:12:32;;;;;;;32.20;19.40;;;;;;;3.33;57.70;100936.16;4927901;29;20036;-96
2023/01/24 13:30:03;;;;;;;9.25;5.25;;;;;;;3.54;56.85;100989.50;5359038;23;20057;-96
2023/01/24 13:32:38;;;;;;;11.63;4.72;;;;;;;3.23;57.37;100952.38;5004798;28;20050;-96
2023/01/24 13:35:23;;;;;;;9.55;4.85;;;;;;;3.30;57.60;100953.31;4934281;29;20050;-95
2023/01/24 13:38:01;;;;;;;11.15;5.05;;;;;;;3.38;57.64;100971.03;4919094;29;20111;-95
2023/01/24 13:46:39;;;;;;;9.20;5.72;;;;;;;3.14;58.69;100956.13;4985305;28;20122;-95
2023/01/24 13:49:37;;;;;;;11.07;5.75;;;;;;;3.62;57.98;100992.09;4971153;28;20042;-96
2023/01/24 13:53:18;;;;;;;;;;;;;;;;;;;;;
2023/01/24 13:56:08;;;;;;;10.40;4.68;;;;;;;3.48;57.97;100992.91;4902371;29;20650;-96
2023/01/24 13:58:34;;;;;;;9.82;4.57;;;;;;;3.42;58.03;100982.97;4930051;28;20038;-96
2023/01/24 14:01:16;;;;;;;7.35;4.28;;;;;;;3.51;57.72;100976.56;4929102;29;20110;-96
2023/01/24 14:03:52;;;;;;;9.15;4.85;;;;;;;3.43;57.64;100968.66;4932890;28;20050;-95
2023/01/24 14:06:40;;;;;;;8.98;4.60;;;;;;;3.31;57.87;100960.28;4950097;28;20035;-94
2023/01/24 14:09:22;;;;;;;10.60;4.95;;;;;;;3.33;57.46;100960.94;4948561;28;20035;-94
2023/01/24 14:12:17;;;;;;;12.43;4.45;;;;;;;3.53;57.46;100992.34;4931014;28;20042;-93
2023/01/24 14:15:12;;;;;;;10.05;4.82;;;;;;;3.59;57.40;100988.94;4931957;28;20556;-96
2023/01/24 14:17:48;;;;;;;17.63;6.10;;;;;;;3.62;57.50;100985.94;4973404;28;20047;-95
2023/01/24 14:20:39;;;;;;;10.75;5.05;;;;;;;3.55;57.63;100977.84;4961487;28;20035;-95
2023/01/24 14:23:30;;;;;;;;;;;;;;;;;;;;;
2023/01/24 14:26:05;;;;;;;9.73;4.90;;;;;;;3.26;57.08;100949.38;4944059;28;20114;-95
2023/01/24 14:28:39;;;;;;;11.18;5.97;;;;;;;3.57;57.15;100980.31;4943966;28;20035;-93
2023/01/24 14:31:20;;;;;;;12.40;6.28;;;;;;;3.28;57.45;100960.66;4957876;28;20038;-93
2023/01/24 14:33:57;;;;;;;12.02;5.53;;;;;;;3.38;57.16;100976.34;4941873;28;20030;-93
2023/01/24 14:36:31;;;;;;;11.98;5.93;;;;;;;3.32;57.22;100966.44;4925893;29;20134;-94
2023/01/24 14:39:20;;;;;;;11.35;6.05;;;;;;;3.42;57.76;100978.50;4909355;29;20127;-93
2023/01/24 14:41:54;;;;;;;11.77;5.15;;;;;;;3.33;57.04;100960.09;4923799;29;20566;-93
2023/01/24 14:44:31;;;;;;;10.73;5.63;;;;;;;3.38;57.16;100976.34;4925083;29;20055;-95
2023/01/24 14:47:14;;;;;;;11.10;5.90;;;;;;;3.31;57.24;100970.94;4942363;29;20043;-94
2023/01/24 14:49:45;;;;;;;10.02;5.07;;;;;;;3.30;57.98;100963.97;4914473;29;20043;-96